Time;durP1;ratioP1;P1;durP2;ratioP2;P2;SDS_P1;SDS_P2;PMS_P1;PMS_P2;Temp;Humidity;BMP_temperature;BMP_pressure;BME280_temperature;BME280_humidity;BME280_pressure;Samples;Min_cycle;Max_cycle;Signal;HPM_P1;HPM_P2
2023/09/30 00:02:00;;;;;;;;;;;;;;;;;;4997995;28;5129;-64
2023/09/30 00:04:27;;;;;;;;;;;;;;;;;;4999927;28;5115;-64
2023/09/30 00:06:52;;;;;;;;;;;;;;;;;;5003917;28;5174;-64
2023/09/30 00:09:17;;;;;;;;;;;;;;;;;;5005790;28;3345;-64
2023/09/30 00:11:43;;;;;;;;;;;;;;;;;;5005212;28;4635;-64
2023/09/30 00:14:08;;;;;;;;;;;;;;;;;;5021440;28;5058;-64
2023/09/30 00:16:33;;;;;;;;;;;;;;;;;;5005745;28;4508;-64
2023/09/30 00:18:58;;;;;;;;;;;;;;;;;;5005454;28;4709;-64
2023/09/30 00:21:24;;;;;;;;;;;;;;;;;;5007719;28;3262;-64
2023/09/30 00:23:49;;;;;;;;;;;;;;;;;;5018945;28;5087;-64
2023/09/30 00:26:15;;;;;;;;;;;;;;;;;;4989654;28;4653;-64
2023/09/30 00:28:40;;;;;;;;;;;;;;;;;;5006883;28;4621;-64
2023/09/30 00:31:11;;;;;;;;;;;;;;;;;;5005820;28;5183;-64
2023/09/30 00:33:36;;;;;;;;;;;;;;;;;;5002882;28;4512;-64
2023/09/30 00:36:06;;;;;;;;;;;;;;;;;;5005785;28;3364;-64
2023/09/30 00:38:31;;;;;;;;;;;;;;;;;;5003000;28;5082;-64
2023/09/30 00:40:57;;;;;;;;;;;;;;;;;;5005198;28;5121;-64
2023/09/30 00:43:22;;;;;;;;;;;;;;;;;;5005531;28;4936;-64
2023/09/30 00:46:06;;;;;;;;;;;;;;;;;;5003637;28;5016;-64
2023/09/30 00:48:32;;;;;;;;;;;;;;;;;;5008334;28;1096;-64
2023/09/30 00:50:57;;;;;;;;;;;;;;;;;;5003659;28;5097;-64
2023/09/30 00:53:23;;;;;;;;;;;;;;;;;;5019232;28;4999;-64
2023/09/30 00:55:48;;;;;;;;;;;;;;;;;;5006355;28;4993;-64
2023/09/30 00:58:13;;;;;;;;;;;;;;;;;;5002861;28;5190;-64
2023/09/30 01:00:38;;;;;;;;;;;;;;;;;;5002552;28;5084;-64
2023/09/30 01:03:04;;;;;;;;;;;;;;;;;;5020089;28;3450;-64
2023/09/30 01:05:30;;;;;;;;;;;;;;;;;;5018746;28;4675;-65
2023/09/30 01:07:55;;;;;;;;;;;;;;;;;;4999802;28;4452;-64
2023/09/30 01:10:20;;;;;;;;;;;;;;;;;;5020947;28;4708;-64
2023/09/30 01:12:46;;;;;;;;;;;;;;;;;;5005428;28;5024;-64
2023/09/30 01:15:12;;;;;;;;;;;;;;;;;;5004206;28;3257;-64
2023/09/30 01:17:37;;;;;;;;;;;;;;;;;;5005834;28;4433;-64
2023/09/30 01:20:08;;;;;;;;;;;;;;;;;;5003235;28;5150;-64
2023/09/30 01:22:34;;;;;;;;;;;;;;;;;;5005174;28;5030;-64
2023/09/30 01:24:59;;;;;;;;;;;;;;;;;;5005042;28;5369;-64
2023/09/30 01:27:25;;;;;;;;;;;;;;;;;;5004764;28;3254;-64
2023/09/30 01:29:50;;;;;;;;;;;;;;;;;;5019637;28;5243;-64
2023/09/30 01:32:16;;;;;;;;;;;;;;;;;;5006642;28;5049;-64
2023/09/30 01:34:41;;;;;;;;;;;;;;;;;;4986952;28;5277;-65
2023/09/30 01:37:07;;;;;;;;;;;;;;;;;;5019986;28;5227;-64
2023/09/30 01:39:32;;;;;;;;;;;;;;;;;;5005607;28;5133;-64
2023/09/30 01:41:58;;;;;;;;;;;;;;;;;;4986958;28;3436;-64
2023/09/30 01:44:23;;;;;;;;;;;;;;;;;;5002993;28;5020;-65
2023/09/30 01:46:48;;;;;;;;;;;;;;;;;;5002182;28;4989;-64
2023/09/30 01:49:13;;;;;;;;;;;;;;;;;;4999050;28;4609;-65
2023/09/30 01:51:39;;;;;;;;;;;;;;;;;;5005318;28;5018;-64
2023/09/30 01:54:04;;;;;;;;;;;;;;;;;;4998498;28;3336;-64
2023/09/30 01:56:30;;;;;;;;;;;;;;;;;;5001420;28;5110;-64
2023/09/30 01:58:55;;;;;;;;;;;;;;;;;;5006336;28;5194;-64
2023/09/30 02:01:20;;;;;;;;;;;;;;;;;;5004893;28;5092;-64
2023/09/30 02:03:46;;;;;;;;;;;;;;;;;;5002038;28;5057;-64
2023/09/30 02:06:12;;;;;;;;;;;;;;;;;;5005744;28;3321;-64
2023/09/30 02:08:37;;;;;;;;;;;;;;;;;;5006468;28;4984;-64
2023/09/30 02:11:05;;;;;;;;;;;;;;;;;;5005029;28;5331;-64
2023/09/30 02:13:31;;;;;;;;;;;;;;;;;;4986779;28;5024;-64
2023/09/30 02:15:56;;;;;;;;;;;;;;;;;;5005169;28;4513;-64
2023/09/30 02:18:23;;;;;;;;;;;;;;;;;;5004745;28;3392;-64
2023/09/30 02:20:50;;;;;;;;;;;;;;;;;;5005165;28;5366;-64
2023/09/30 02:23:17;;;;;;;;;;;;;;;;;;4988796;28;4928;-64
2023/09/30 02:25:43;;;;;;;;;;;;;;;;;;5005470;28;4950;-64
2023/09/30 02:28:08;;;;;;;;;;;;;;;;;;5004627;28;5416;-64
2023/09/30 02:30:33;;;;;;;;;;;;;;;;;;5002611;28;5287;-64
2023/09/30 02:32:59;;;;;;;;;;;;;;;;;;5006317;28;3305;-64
2023/09/30 02:35:26;;;;;;;;;;;;;;;;;;5003384;28;5027;-64
2023/09/30 02:37:51;;;;;;;;;;;;;;;;;;5002401;28;5161;-64
2023/09/30 02:40:17;;;;;;;;;;;;;;;;;;5003592;28;5396;-64
2023/09/30 02:42:42;;;;;;;;;;;;;;;;;;5004702;28;5009;-64
2023/09/30 02:45:08;;;;;;;;;;;;;;;;;;5001229;28;3438;-64
2023/09/30 02:47:33;;;;;;;;;;;;;;;;;;5007385;28;5049;-65
2023/09/30 02:49:59;;;;;;;;;;;;;;;;;;5006948;28;5037;-64
2023/09/30 02:52:24;;;;;;;;;;;;;;;;;;5007655;28;5137;-64
2023/09/30 02:54:49;;;;;;;;;;;;;;;;;;5006361;28;5394;-65
2023/09/30 02:57:15;;;;;;;;;;;;;;;;;;5009219;28;4956;-65
2023/09/30 02:59:40;;;;;;;;;;;;;;;;;;4990798;28;5100;-64
2023/09/30 03:02:06;;;;;;;;;;;;;;;;;;5007043;28;5228;-64
2023/09/30 03:04:32;;;;;;;;;;;;;;;;;;5004881;28;5135;-64
2023/09/30 03:06:57;;;;;;;;;;;;;;;;;;4999197;28;5135;-64
2023/09/30 03:09:23;;;;;;;;;;;;;;;;;;5008448;28;3270;-64
2023/09/30 03:11:48;;;;;;;;;;;;;;;;;;5006954;28;4487;-64
2023/09/30 03:14:13;;;;;;;;;;;;;;;;;;5003574;28;4964;-65
2023/09/30 03:16:40;;;;;;;;;;;;;;;;;;5007130;28;5048;-64
2023/09/30 03:19:05;;;;;;;;;;;;;;;;;;5004128;28;5034;-64
2023/09/30 03:21:31;;;;;;;;;;;;;;;;;;4988848;28;3345;-65
2023/09/30 03:23:56;;;;;;;;;;;;;;;;;;5008452;28;4871;-64
2023/09/30 03:26:22;;;;;;;;;;;;;;;;;;4999377;28;5584;-65
2023/09/30 03:28:47;;;;;;;;;;;;;;;;;;5007962;28;5044;-64
2023/09/30 03:31:12;;;;;;;;;;;;;;;;;;5008355;28;5226;-64
2023/09/30 03:33:37;;;;;;;;;;;;;;;;;;5008445;28;5145;-64
2023/09/30 03:36:03;;;;;;;;;;;;;;;;;;5003905;28;3373;-64
2023/09/30 03:38:29;;;;;;;;;;;;;;;;;;5003094;28;5089;-65
2023/09/30 03:40:54;;;;;;;;;;;;;;;;;;5005772;28;5552;-64
2023/09/30 03:43:20;;;;;;;;;;;;;;;;;;5007211;28;5039;-64
2023/09/30 03:45:46;;;;;;;;;;;;;;;;;;5004993;28;5115;-64
2023/09/30 03:48:11;;;;;;;;;;;;;;;;;;5005926;28;3360;-64
2023/09/30 03:50:37;;;;;;;;;;;;;;;;;;5004086;28;5121;-65
2023/09/30 03:53:04;;;;;;;;;;;;;;;;;;5007676;28;5052;-64
2023/09/30 03:55:30;;;;;;;;;;;;;;;;;;5003518;28;4505;-64
2023/09/30 03:57:55;;;;;;;;;;;;;;;;;;5003613;28;5196;-64
2023/09/30 04:00:21;;;;;;;;;;;;;;;;;;5008295;28;3206;-64
2023/09/30 04:02:49;;;;;;;;;;;;;;;;;;5005811;28;5059;-64
2023/09/30 04:05:16;;;;;;;;;;;;;;;;;;5007804;28;4454;-64
2023/09/30 04:07:42;;;;;;;;;;;;;;;;;;5005645;28;4486;-64
2023/09/30 04:10:08;;;;;;;;;;;;;;;;;;5000951;28;4608;-64
2023/09/30 04:12:33;;;;;;;;;;;;;;;;;;5005587;28;4926;-64
2023/09/30 04:14:59;;;;;;;;;;;;;;;;;;5007047;28;3319;-64
2023/09/30 04:17:24;;;;;;;;;;;;;;;;;;5005915;28;5021;-64
2023/09/30 04:19:52;;;;;;;;;;;;;;;;;;5005191;28;5215;-64
2023/09/30 04:22:18;;;;;;;;;;;;;;;;;;5005422;28;5040;-65
2023/09/30 04:24:44;;;;;;;;;;;;;;;;;;5005418;28;5066;-71
2023/09/30 04:27:09;;;;;;;;;;;;;;;;;;5003562;28;3373;-64
2023/09/30 04:29:34;;;;;;;;;;;;;;;;;;4986077;28;4509;-63
2023/09/30 04:32:00;;;;;;;;;;;;;;;;;;5006068;28;5033;-63
2023/09/30 04:34:27;;;;;;;;;;;;;;;;;;5003563;28;5300;-63
2023/09/30 04:36:52;;;;;;;;;;;;;;;;;;5004805;28;4984;-62
2023/09/30 04:39:18;;;;;;;;;;;;;;;;;;4996876;28;3285;-62
2023/09/30 04:41:43;;;;;;;;;;;;;;;;;;5006479;28;4923;-62
2023/09/30 04:44:12;;;;;;;;;;;;;;;;;;5004247;28;5054;-62
2023/09/30 04:46:40;;;;;;;;;;;;;;;;;;5002510;28;5089;-63
2023/09/30 04:49:08;;;;;;;;;;;;;;;;;;5001373;28;5057;-62
2023/09/30 04:51:34;;;;;;;;;;;;;;;;;;5001906;28;5111;-62
2023/09/30 04:53:59;;;;;;;;;;;;;;;;;;4999101;28;4022;-62
2023/09/30 04:56:25;;;;;;;;;;;;;;;;;;5002126;28;4952;-63
2023/09/30 04:58:50;;;;;;;;;;;;;;;;;;4999555;28;4785;-62
2023/09/30 05:01:17;;;;;;;;;;;;;;;;;;5003386;28;5174;-62
2023/09/30 05:03:43;;;;;;;;;;;;;;;;;;5017090;28;4639;-62
2023/09/30 05:06:09;;;;;;;;;;;;;;;;;;4999126;28;3304;-64
2023/09/30 05:08:34;;;;;;;;;;;;;;;;;;5000718;28;4587;-63
2023/09/30 05:11:00;;;;;;;;;;;;;;;;;;5000664;28;5026;-62
2023/09/30 05:13:25;;;;;;;;;;;;;;;;;;4999387;28;5058;-63
2023/09/30 05:15:51;;;;;;;;;;;;;;;;;;5003578;28;4999;-62
2023/09/30 05:18:16;;;;;;;;;;;;;;;;;;5002732;28;3448;-62
2023/09/30 05:20:42;;;;;;;;;;;;;;;;;;5003529;28;4653;-63
2023/09/30 05:23:07;;;;;;;;;;;;;;;;;;5004068;28;4654;-65
2023/09/30 05:25:32;;;;;;;;;;;;;;;;;;5003901;28;5083;-63
2023/09/30 05:27:58;;;;;;;;;;;;;;;;;;5003776;28;4622;-65
2023/09/30 05:30:23;;;;;;;;;;;;;;;;;;5013537;28;3266;-65
2023/09/30 05:32:48;;;;;;;;;;;;;;;;;;5001679;28;5103;-68
2023/09/30 05:35:14;;;;;;;;;;;;;;;;;;5003635;28;5091;-67
2023/09/30 05:37:40;;;;;;;;;;;;;;;;;;5005966;28;5142;-72
2023/09/30 05:40:16;;;;;;;;;;;;;;;;;;5004223;28;5011;-66
2023/09/30 05:42:42;;;;;;;;;;;;;;;;;;5006021;28;5014;-68
2023/09/30 05:45:09;;;;;;;;;;;;;;;;;;5004165;28;3535;-68
2023/09/30 05:47:34;;;;;;;;;;;;;;;;;;5004973;28;5005;-69
2023/09/30 05:49:59;;;;;;;;;;;;;;;;;;4999787;28;4918;-68
2023/09/30 05:52:25;;;;;;;;;;;;;;;;;;5020501;28;5173;-70
2023/09/30 05:54:50;;;;;;;;;;;;;;;;;;4998838;28;5164;-70
2023/09/30 05:57:15;;;;;;;;;;;;;;;;;;5003290;28;4868;-74
2023/09/30 05:59:40;;;;;;;;;;;;;;;;;;5005252;28;5003;-69
2023/09/30 06:02:06;;;;;;;;;;;;;;;;;;4999297;28;5156;-68
2023/09/30 06:04:33;;;;;;;;;;;;;;;;;;5001868;28;5275;-68
2023/09/30 06:06:58;;;;;;;;;;;;;;;;;;5003145;28;5110;-68
2023/09/30 06:09:25;;;;;;;;;;;;;;;;;;5004316;28;3457;-68
2023/09/30 06:11:50;;;;;;;;;;;;;;;;;;5001883;28;4844;-68
2023/09/30 06:14:15;;;;;;;;;;;;;;;;;;5002762;28;5143;-68
2023/09/30 06:16:41;;;;;;;;;;;;;;;;;;4982720;28;5161;-69
2023/09/30 06:19:06;;;;;;;;;;;;;;;;;;5003798;28;5115;-68
2023/09/30 06:21:34;;;;;;;;;;;;;;;;;;5002957;28;3277;-68
2023/09/30 06:24:00;;;;;;;;;;;;;;;;;;5001863;28;5665;-68
2023/09/30 06:26:25;;;;;;;;;;;;;;;;;;5007849;28;5090;-69
2023/09/30 06:28:53;;;;;;;;;;;;;;;;;;5021480;28;5087;-68
2023/09/30 06:31:18;;;;;;;;;;;;;;;;;;5008735;28;5250;-68
2023/09/30 06:33:44;;;;;;;;;;;;;;;;;;5008900;28;5136;-68
2023/09/30 06:36:10;;;;;;;;;;;;;;;;;;5009507;28;3385;-68
2023/09/30 06:38:36;;;;;;;;;;;;;;;;;;5007410;28;4465;-69
2023/09/30 06:41:02;;;;;;;;;;;;;;;;;;5008601;28;5077;-69
2023/09/30 06:43:27;;;;;;;;;;;;;;;;;;5006025;28;5105;-69
2023/09/30 06:45:54;;;;;;;;;;;;;;;;;;5007597;28;5028;-68
2023/09/30 06:48:19;;;;;;;;;;;;;;;;;;5008132;28;3385;-68
2023/09/30 06:50:48;;;;;;;;;;;;;;;;;;5006343;28;4913;-68
2023/09/30 06:53:17;;;;;;;;;;;;;;;;;;5009207;28;4607;-69
2023/09/30 06:55:43;;;;;;;;;;;;;;;;;;4988308;28;5171;-69
2023/09/30 06:58:08;;;;;;;;;;;;;;;;;;5006204;28;5039;-69
2023/09/30 07:00:35;;;;;;;;;;;;;;;;;;5002625;28;5088;-68
2023/09/30 07:03:01;;;;;;;;;;;;;;;;;;5008593;28;3265;-69
2023/09/30 07:05:28;;;;;;;;;;;;;;;;;;5002273;28;5110;-68
2023/09/30 07:07:53;;;;;;;;;;;;;;;;;;5007911;28;4994;-68
2023/09/30 07:10:18;;;;;;;;;;;;;;;;;;5006439;28;5066;-68
2023/09/30 07:12:44;;;;;;;;;;;;;;;;;;5006327;28;5007;-68
2023/09/30 07:15:09;;;;;;;;;;;;;;;;;;5009177;28;3175;-68
2023/09/30 07:17:35;;;;;;;;;;;;;;;;;;5005822;28;4669;-68
2023/09/30 07:20:00;;;;;;;;;;;;;;;;;;5002301;28;5016;-68
2023/09/30 07:22:25;;;;;;;;;;;;;;;;;;5014842;28;4897;-68
2023/09/30 07:24:51;;;;;;;;;;;;;;;;;;5008700;28;5140;-63
2023/09/30 07:27:16;;;;;;;;;;;;;;;;;;5003943;28;3440;-65
2023/09/30 07:29:41;;;;;;;;;;;;;;;;;;5000424;28;5148;-64
2023/09/30 07:32:07;;;;;;;;;;;;;;;;;;5000729;28;4910;-64
2023/09/30 07:34:32;;;;;;;;;;;;;;;;;;5016198;28;5294;-64
2023/09/30 07:36:58;;;;;;;;;;;;;;;;;;4987315;28;4544;-64
2023/09/30 07:39:23;;;;;;;;;;;;;;;;;;5005785;28;3256;-64
2023/09/30 07:41:48;;;;;;;;;;;;;;;;;;5006551;28;5048;-64
2023/09/30 07:44:13;;;;;;;;;;;;;;;;;;5007468;28;5249;-64
2023/09/30 07:46:39;;;;;;;;;;;;;;;;;;5005502;28;5110;-64
2023/09/30 07:49:06;;;;;;;;;;;;;;;;;;5002649;28;5033;-64
2023/09/30 07:51:32;;;;;;;;;;;;;;;;;;5008887;28;1102;-64
2023/09/30 07:53:57;;;;;;;;;;;;;;;;;;5003504;28;4520;-63
2023/09/30 07:56:23;;;;;;;;;;;;;;;;;;5003112;28;4989;-64
2023/09/30 07:58:48;;;;;;;;;;;;;;;;;;5005239;28;5202;-64
2023/09/30 08:01:14;;;;;;;;;;;;;;;;;;5002796;28;5186;-64
2023/09/30 08:03:40;;;;;;;;;;;;;;;;;;4998294;28;5056;-64
2023/09/30 08:06:07;;;;;;;;;;;;;;;;;;5007846;28;1244;-64
2023/09/30 08:08:32;;;;;;;;;;;;;;;;;;4983703;28;4827;-64
2023/09/30 08:10:58;;;;;;;;;;;;;;;;;;5004393;28;5056;-65
2023/09/30 08:13:24;;;;;;;;;;;;;;;;;;5006970;28;4993;-64
2023/09/30 08:15:50;;;;;;;;;;;;;;;;;;5001871;28;4883;-64
2023/09/30 08:18:15;;;;;;;;;;;;;;;;;;5006959;28;1910;-65
2023/09/30 08:20:40;;;;;;;;;;;;;;;;;;5002763;28;5150;-64
2023/09/30 08:23:05;;;;;;;;;;;;;;;;;;5018600;28;4495;-66
2023/09/30 08:25:31;;;;;;;;;;;;;;;;;;4986879;28;5086;-64
2023/09/30 08:27:56;;;;;;;;;;;;;;;;;;5006318;28;5175;-65
2023/09/30 08:30:21;;;;;;;;;;;;;;;;;;5003141;28;3402;-66
2023/09/30 08:32:46;;;;;;;;;;;;;;;;;;4989620;28;5279;-68
2023/09/30 08:35:14;;;;;;;;;;;;;;;;;;5001488;28;5034;-64
2023/09/30 08:37:39;;;;;;;;;;;;;;;;;;5006101;28;4510;-65
2023/09/30 08:40:05;;;;;;;;;;;;;;;;;;5003518;28;5038;-65
2023/09/30 08:42:32;;;;;;;;;;;;;;;;;;5004625;28;1616;-64
2023/09/30 08:44:58;;;;;;;;;;;;;;;;;;4999962;28;5007;-64
2023/09/30 08:47:24;;;;;;;;;;;;;;;;;;4986210;28;5048;-65
2023/09/30 08:49:50;;;;;;;;;;;;;;;;;;4999148;28;4459;-65
2023/09/30 08:52:15;;;;;;;;;;;;;;;;;;5015232;28;5147;-65
2023/09/30 08:54:40;;;;;;;;;;;;;;;;;;5002361;28;5167;-64
2023/09/30 08:57:05;;;;;;;;;;;;;;;;;;4999222;28;4993;-64
2023/09/30 08:59:31;;;;;;;;;;;;;;;;;;5001464;28;5143;-65
2023/09/30 09:01:56;;;;;;;;;;;;;;;;;;5000744;28;4988;-65
2023/09/30 09:04:21;;;;;;;;;;;;;;;;;;5003203;28;4654;-64
2023/09/30 09:06:47;;;;;;;;;;;;;;;;;;4998684;28;4679;-65
2023/09/30 09:09:16;;;;;;;;;;;;;;;;;;5001970;28;3218;-65
2023/09/30 09:11:42;;;;;;;;;;;;;;;;;;5001279;28;4973;-65
2023/09/30 09:14:08;;;;;;;;;;;;;;;;;;4995772;28;4958;-65
2023/09/30 09:16:33;;;;;;;;;;;;;;;;;;5003106;28;4472;-64
2023/09/30 09:18:59;;;;;;;;;;;;;;;;;;5000058;28;5049;-64
2023/09/30 09:21:26;;;;;;;;;;;;;;;;;;5015937;28;3227;-64
2023/09/30 09:23:51;;;;;;;;;;;;;;;;;;5000263;28;5020;-65
2023/09/30 09:26:24;;;;;;;;;;;;;;;;;;5001106;28;5124;-64
2023/09/30 09:28:49;;;;;;;;;;;;;;;;;;4998442;28;4624;-65
2023/09/30 09:31:24;;;;;;;;;;;;;;;;;;5002418;28;5008;-64
2023/09/30 09:33:50;;;;;;;;;;;;;;;;;;5000479;28;5285;-64
2023/09/30 09:36:15;;;;;;;;;;;;;;;;;;4984122;28;3074;-64
2023/09/30 09:38:48;;;;;;;;;;;;;;;;;;4996916;28;4883;-64
2023/09/30 09:41:13;;;;;;;;;;;;;;;;;;5001650;28;5060;-65
2023/09/30 09:43:39;;;;;;;;;;;;;;;;;;5003230;28;5293;-64
2023/09/30 09:46:05;;;;;;;;;;;;;;;;;;5001537;28;5034;-65
2023/09/30 09:48:30;;;;;;;;;;;;;;;;;;5000507;28;3431;-65
2023/09/30 09:50:56;;;;;;;;;;;;;;;;;;5014591;28;4991;-64
2023/09/30 09:53:21;;;;;;;;;;;;;;;;;;5003444;28;4524;-64
2023/09/30 09:55:47;;;;;;;;;;;;;;;;;;4996879;28;5118;-64
2023/09/30 09:58:12;;;;;;;;;;;;;;;;;;5005494;28;5182;-64
2023/09/30 10:00:37;;;;;;;;;;;;;;;;;;5018244;28;5293;-64
2023/09/30 10:03:03;;;;;;;;;;;;;;;;;;4986304;28;1487;-64
2023/09/30 10:05:28;;;;;;;;;;;;;;;;;;5006119;28;5001;-64
2023/09/30 10:08:20;;;;;;;;;;;;;;;;;;4999453;28;5086;-64
2023/09/30 10:10:45;;;;;;;;;;;;;;;;;;4998441;28;4870;-65
2023/09/30 10:13:42;;;;;;;;;;;;;;;;;;5003611;28;5030;-64
2023/09/30 10:16:08;;;;;;;;;;;;;;;;;;4984508;28;4638;-64
2023/09/30 10:18:37;;;;;;;;;;;;;;;;;;5003398;28;5027;-63
2023/09/30 10:21:07;;;;;;;;;;;;;;;;;;5002594;28;3334;-64
2023/09/30 10:23:35;;;;;;;;;;;;;;;;;;5003024;28;5228;-64
2023/09/30 10:26:13;;;;;;;;;;;;;;;;;;5007611;28;5163;-64
2023/09/30 10:28:44;;;;;;;;;;;;;;;;;;5005855;28;5086;-64
2023/09/30 10:31:17;;;;;;;;;;;;;;;;;;5004099;28;5076;-64
2023/09/30 10:34:06;;;;;;;;;;;;;;;;;;5004710;28;4870;-64
2023/09/30 10:36:35;;;;;;;;;;;;;;;;;;4984489;28;2189;-64
2023/09/30 10:39:01;;;;;;;;;;;;;;;;;;5006320;28;5234;-64
2023/09/30 10:41:38;;;;;;;;;;;;;;;;;;5007063;28;5120;-65
2023/09/30 10:44:22;;;;;;;;;;;;;;;;;;5005708;28;4616;-64
2023/09/30 10:46:48;;;;;;;;;;;;;;;;;;5002059;28;5044;-64
2023/09/30 10:49:22;;;;;;;;;;;;;;;;;;4993383;28;5084;-64
2023/09/30 10:51:49;;;;;;;;;;;;;;;;;;5007537;28;5060;-64
2023/09/30 10:54:14;;;;;;;;;;;;;;;;;;5021904;28;1695;-64
2023/09/30 10:56:39;;;;;;;;;;;;;;;;;;5006527;28;5226;-64
2023/09/30 10:59:05;;;;;;;;;;;;;;;;;;5001149;28;4461;-64
2023/09/30 11:01:36;;;;;;;;;;;;;;;;;;5019141;28;4963;-64
2023/09/30 11:04:04;;;;;;;;;;;;;;;;;;5003777;28;5090;-64
2023/09/30 11:06:29;;;;;;;;;;;;;;;;;;5021826;28;1414;-64
2023/09/30 11:08:59;;;;;;;;;;;;;;;;;;5002757;28;4900;-65
2023/09/30 11:11:37;;;;;;;;;;;;;;;;;;5002573;28;4996;-65
2023/09/30 11:14:05;;;;;;;;;;;;;;;;;;5001036;28;4492;-64
2023/09/30 11:16:40;;;;;;;;;;;;;;;;;;5003132;28;5187;-64
2023/09/30 11:19:07;;;;;;;;;;;;;;;;;;5004794;28;5295;-64
2023/09/30 11:21:33;;;;;;;;;;;;;;;;;;4996072;28;4568;-65
2023/09/30 11:23:58;;;;;;;;;;;;;;;;;;5004981;28;3365;-65
2023/09/30 11:26:33;;;;;;;;;;;;;;;;;;5004424;28;5153;-64
2023/09/30 11:29:07;;;;;;;;;;;;;;;;;;5006032;28;4999;-64
2023/09/30 11:31:33;;;;;;;;;;;;;;;;;;5006024;28;4979;-64
2023/09/30 11:34:03;;;;;;;;;;;;;;;;;;5003274;28;5647;-64
2023/09/30 11:36:28;;;;;;;;;;;;;;;;;;5005046;28;1767;-65
2023/09/30 11:38:54;;;;;;;;;;;;;;;;;;5004464;28;5057;-64
2023/09/30 11:41:19;;;;;;;;;;;;;;;;;;5003302;28;5001;-64
2023/09/30 11:44:01;;;;;;;;;;;;;;;;;;4998722;28;5091;-65
2023/09/30 11:46:27;;;;;;;;;;;;;;;;;;5003528;28;5054;-64
2023/09/30 11:48:59;;;;;;;;;;;;;;;;;;4998308;28;4940;-65
2023/09/30 11:51:26;;;;;;;;;;;;;;;;;;5020414;28;1261;-65
2023/09/30 11:53:51;;;;;;;;;;;;;;;;;;4986542;28;5890;-65
2023/09/30 11:56:17;;;;;;;;;;;;;;;;;;5001948;28;5219;-67
2023/09/30 11:58:42;;;;;;;;;;;;;;;;;;5005077;28;5129;-60
2023/09/30 12:01:11;;;;;;;;;;;;;;;;;;5002261;28;5075;-57
2023/09/30 12:03:39;;;;;;;;;;;;;;;;;;5006241;28;5040;-61
2023/09/30 12:06:05;;;;;;;;;;;;;;;;;;4998549;28;1476;-67
2023/09/30 12:08:30;;;;;;;;;;;;;;;;;;5008631;28;5781;-66
2023/09/30 12:10:55;;;;;;;;;;;;;;;;;;5007363;28;5091;-66
2023/09/30 12:13:21;;;;;;;;;;;;;;;;;;5007537;28;5108;-70
2023/09/30 12:15:46;;;;;;;;;;;;;;;;;;4999519;28;5102;-68
2023/09/30 12:18:13;;;;;;;;;;;;;;;;;;5008754;28;1985;-71
2023/09/30 12:20:41;;;;;;;;;;;;;;;;;;4989391;28;5326;-68
2023/09/30 12:23:07;;;;;;;;;;;;;;;;;;4999922;28;5826;-69
2023/09/30 12:25:33;;;;;;;;;;;;;;;;;;5008385;28;4987;-70
2023/09/30 12:27:58;;;;;;;;;;;;;;;;;;5005420;28;5019;-67
2023/09/30 12:30:24;;;;;;;;;;;;;;;;;;5001975;28;1138;-71
2023/09/30 12:32:49;;;;;;;;;;;;;;;;;;5005616;28;5027;-67
2023/09/30 12:35:14;;;;;;;;;;;;;;;;;;5005580;28;5031;-70
2023/09/30 12:37:40;;;;;;;;;;;;;;;;;;5000347;28;5755;-71
2023/09/30 12:40:07;;;;;;;;;;;;;;;;;;5018831;28;5348;-69
2023/09/30 12:42:34;;;;;;;;;;;;;;;;;;5006403;28;5010;-67
2023/09/30 12:45:00;;;;;;;;;;;;;;;;;;5006020;28;3293;-68
2023/09/30 12:47:25;;;;;;;;;;;;;;;;;;5006328;28;4929;-65
2023/09/30 12:49:51;;;;;;;;;;;;;;;;;;5002272;28;5142;-66
2023/09/30 12:52:17;;;;;;;;;;;;;;;;;;5002287;28;5137;-66
2023/09/30 12:54:42;;;;;;;;;;;;;;;;;;4987215;28;5039;-65
2023/09/30 12:57:07;;;;;;;;;;;;;;;;;;5002974;28;4929;-70
2023/09/30 12:59:34;;;;;;;;;;;;;;;;;;4999900;28;4476;-69
2023/09/30 13:01:59;;;;;;;;;;;;;;;;;;5006291;28;5003;-64
2023/09/30 13:04:26;;;;;;;;;;;;;;;;;;5004395;28;4989;-64
2023/09/30 13:06:51;;;;;;;;;;;;;;;;;;5006282;28;5859;-65
2023/09/30 13:09:16;;;;;;;;;;;;;;;;;;5007528;28;3280;-62
2023/09/30 13:11:42;;;;;;;;;;;;;;;;;;4999723;28;4637;-65
2023/09/30 13:14:07;;;;;;;;;;;;;;;;;;5003626;28;5074;-64
2023/09/30 13:16:32;;;;;;;;;;;;;;;;;;5006748;28;5181;-66
2023/09/30 13:18:57;;;;;;;;;;;;;;;;;;5006434;28;5051;-65
2023/09/30 13:21:23;;;;;;;;;;;;;;;;;;5007357;28;1169;-63
2023/09/30 13:23:48;;;;;;;;;;;;;;;;;;5018526;28;5065;-64
2023/09/30 13:26:13;;;;;;;;;;;;;;;;;;4999516;28;5062;-64
2023/09/30 13:28:39;;;;;;;;;;;;;;;;;;5003423;28;5241;-62
2023/09/30 13:31:04;;;;;;;;;;;;;;;;;;4998554;28;4491;-63
2023/09/30 13:33:30;;;;;;;;;;;;;;;;;;4998293;28;2276;-62
2023/09/30 13:35:55;;;;;;;;;;;;;;;;;;4983873;28;5002;-66
2023/09/30 13:38:21;;;;;;;;;;;;;;;;;;5005738;28;5683;-65
2023/09/30 13:40:46;;;;;;;;;;;;;;;;;;4993430;28;4794;-64
2023/09/30 13:43:11;;;;;;;;;;;;;;;;;;5002393;28;5583;-65
2023/09/30 13:45:36;;;;;;;;;;;;;;;;;;5005716;28;4728;-64
2023/09/30 13:48:02;;;;;;;;;;;;;;;;;;5003172;28;1530;-65
2023/09/30 13:50:27;;;;;;;;;;;;;;;;;;4993777;28;5094;-68
2023/09/30 13:52:53;;;;;;;;;;;;;;;;;;5004324;28;4988;-64
2023/09/30 13:55:19;;;;;;;;;;;;;;;;;;5002980;28;5017;-66
2023/09/30 13:57:45;;;;;;;;;;;;;;;;;;5000383;28;5060;-65
2023/09/30 14:00:11;;;;;;;;;;;;;;;;;;5002003;28;3214;-65
2023/09/30 14:02:37;;;;;;;;;;;;;;;;;;5003151;28;5210;-64
2023/09/30 14:05:04;;;;;;;;;;;;;;;;;;5001251;28;4978;-67
2023/09/30 14:07:29;;;;;;;;;;;;;;;;;;5003321;28;5801;-67
2023/09/30 14:09:54;;;;;;;;;;;;;;;;;;4999269;28;5001;-63
2023/09/30 14:12:20;;;;;;;;;;;;;;;;;;5003707;28;3404;-61
2023/09/30 14:14:45;;;;;;;;;;;;;;;;;;5004865;28;4600;-62
2023/09/30 14:17:11;;;;;;;;;;;;;;;;;;5005956;28;5094;-62
2023/09/30 14:19:37;;;;;;;;;;;;;;;;;;5005398;28;5236;-63
2023/09/30 14:22:04;;;;;;;;;;;;;;;;;;4988050;28;5816;-60
2023/09/30 14:24:29;;;;;;;;;;;;;;;;;;5006180;28;1110;-62
2023/09/30 14:26:55;;;;;;;;;;;;;;;;;;5006056;28;4951;-62
2023/09/30 14:29:21;;;;;;;;;;;;;;;;;;5006221;28;5026;-60
2023/09/30 14:31:46;;;;;;;;;;;;;;;;;;5020879;28;5135;-61
2023/09/30 14:34:12;;;;;;;;;;;;;;;;;;5003353;28;5218;-62
2023/09/30 14:36:37;;;;;;;;;;;;;;;;;;5000796;28;4984;-62
2023/09/30 14:39:04;;;;;;;;;;;;;;;;;;5006900;28;1910;-62
2023/09/30 14:41:30;;;;;;;;;;;;;;;;;;5001356;28;5072;-63
2023/09/30 14:43:55;;;;;;;;;;;;;;;;;;5003863;28;5260;-62
2023/09/30 14:46:20;;;;;;;;;;;;;;;;;;5005857;28;5121;-63
2023/09/30 14:48:45;;;;;;;;;;;;;;;;;;5002414;28;4678;-62
2023/09/30 14:51:11;;;;;;;;;;;;;;;;;;5004131;28;2503;-63
2023/09/30 14:53:37;;;;;;;;;;;;;;;;;;5017021;28;5003;-64
2023/09/30 14:56:02;;;;;;;;;;;;;;;;;;5001995;28;4961;-60
2023/09/30 14:58:27;;;;;;;;;;;;;;;;;;4997271;28;5116;-64
2023/09/30 15:00:53;;;;;;;;;;;;;;;;;;4999547;28;5021;-61
2023/09/30 15:03:18;;;;;;;;;;;;;;;;;;5001437;28;2028;-60
2023/09/30 15:05:44;;;;;;;;;;;;;;;;;;5004268;28;4588;-60
2023/09/30 15:08:10;;;;;;;;;;;;;;;;;;5015922;28;5031;-62
2023/09/30 15:10:35;;;;;;;;;;;;;;;;;;5009936;28;5093;-62
2023/09/30 15:13:01;;;;;;;;;;;;;;;;;;5008825;28;5105;-63
2023/09/30 15:15:26;;;;;;;;;;;;;;;;;;5024488;28;1204;-63
2023/09/30 15:17:53;;;;;;;;;;;;;;;;;;4987224;28;5055;-62
2023/09/30 15:20:18;;;;;;;;;;;;;;;;;;5001676;28;5040;-62
2023/09/30 15:22:44;;;;;;;;;;;;;;;;;;5002077;28;5001;-62
2023/09/30 15:25:09;;;;;;;;;;;;;;;;;;5005010;28;4979;-61
2023/09/30 15:27:34;;;;;;;;;;;;;;;;;;5007901;28;5167;-62
2023/09/30 15:30:00;;;;;;;;;;;;;;;;;;5005294;28;3514;-62
2023/09/30 15:32:25;;;;;;;;;;;;;;;;;;4984094;28;4706;-62
2023/09/30 15:34:50;;;;;;;;;;;;;;;;;;5006877;28;5007;-61
2023/09/30 15:37:15;;;;;;;;;;;;;;;;;;5007553;28;4548;-63
2023/09/30 15:39:41;;;;;;;;;;;;;;;;;;5005064;28;5063;-63
2023/09/30 15:42:08;;;;;;;;;;;;;;;;;;5005211;28;3463;-61
2023/09/30 15:44:34;;;;;;;;;;;;;;;;;;5016966;28;4941;-63
2023/09/30 15:46:59;;;;;;;;;;;;;;;;;;5006222;28;4520;-59
2023/09/30 15:49:24;;;;;;;;;;;;;;;;;;5000231;28;5095;-63
2023/09/30 15:51:50;;;;;;;;;;;;;;;;;;5020658;28;5004;-64
2023/09/30 15:54:15;;;;;;;;;;;;;;;;;;5005767;28;3384;-64
2023/09/30 15:56:41;;;;;;;;;;;;;;;;;;5005042;28;5164;-64
2023/09/30 15:59:07;;;;;;;;;;;;;;;;;;4987286;28;5053;-64
2023/09/30 16:01:33;;;;;;;;;;;;;;;;;;4984810;28;5098;-61
2023/09/30 16:03:58;;;;;;;;;;;;;;;;;;5003701;28;4983;-63
2023/09/30 16:06:23;;;;;;;;;;;;;;;;;;5007478;28;3277;-63
2023/09/30 16:08:48;;;;;;;;;;;;;;;;;;5003670;28;5084;-61
2023/09/30 16:11:14;;;;;;;;;;;;;;;;;;4988338;28;5002;-64
2023/09/30 16:13:39;;;;;;;;;;;;;;;;;;5005002;28;4996;-59
2023/09/30 16:16:04;;;;;;;;;;;;;;;;;;5006766;28;5009;-63
2023/09/30 16:18:30;;;;;;;;;;;;;;;;;;5004388;28;3286;-63
2023/09/30 16:20:55;;;;;;;;;;;;;;;;;;4984974;28;5033;-60
2023/09/30 16:23:20;;;;;;;;;;;;;;;;;;5001122;28;4971;-63
2023/09/30 16:25:45;;;;;;;;;;;;;;;;;;5006948;28;5058;-64
2023/09/30 16:28:11;;;;;;;;;;;;;;;;;;5003148;28;5001;-64
2023/09/30 16:30:36;;;;;;;;;;;;;;;;;;5007935;28;5042;-63
2023/09/30 16:33:03;;;;;;;;;;;;;;;;;;5011532;28;1219;-62
2023/09/30 16:35:28;;;;;;;;;;;;;;;;;;5006802;28;5348;-64
2023/09/30 16:37:53;;;;;;;;;;;;;;;;;;5005734;28;5048;-62
2023/09/30 16:40:18;;;;;;;;;;;;;;;;;;5006888;28;5163;-59
2023/09/30 16:42:44;;;;;;;;;;;;;;;;;;5005208;28;5058;-59
2023/09/30 16:45:10;;;;;;;;;;;;;;;;;;5002946;28;3279;-61
2023/09/30 16:47:35;;;;;;;;;;;;;;;;;;5002376;28;4861;-62
2023/09/30 16:50:00;;;;;;;;;;;;;;;;;;5001654;28;5111;-64
2023/09/30 16:52:26;;;;;;;;;;;;;;;;;;5003303;28;5042;-63
2023/09/30 16:54:51;;;;;;;;;;;;;;;;;;5005223;28;5106;-63
2023/09/30 16:57:17;;;;;;;;;;;;;;;;;;5006120;28;5060;-63